sensor_id;sensor_type;location;lat;lon;timestamp;P1;durP1;ratioP1;P2;durP2;ratioP2
28627;SDS011;15815;46.760;19.604;2023-08-07T00:00:24;0.32;;;0.30;;
28627;SDS011;15815;46.760;19.604;2023-08-07T00:02:50;0.13;;;0.13;;
28627;SDS011;15815;46.760;19.604;2023-08-07T00:05:16;0.20;;;0.20;;
28627;SDS011;15815;46.760;19.604;2023-08-07T00:07:42;0.20;;;0.20;;
28627;SDS011;15815;46.760;19.604;2023-08-07T00:10:08;0.50;;;0.40;;
28627;SDS011;15815;46.760;19.604;2023-08-07T00:12:34;0.25;;;0.22;;
28627;SDS011;15815;46.760;19.604;2023-08-07T00:15:00;0.40;;;0.28;;
28627;SDS011;15815;46.760;19.604;2023-08-07T00:17:27;0.40;;;0.40;;
28627;SDS011;15815;46.760;19.604;2023-08-07T00:19:52;0.20;;;0.20;;
28627;SDS011;15815;46.760;19.604;2023-08-07T00:22:18;0.22;;;0.22;;
28627;SDS011;15815;46.760;19.604;2023-08-07T00:24:43;0.35;;;0.22;;
28627;SDS011;15815;46.760;19.604;2023-08-07T00:27:09;0.15;;;0.15;;
28627;SDS011;15815;46.760;19.604;2023-08-07T00:29:34;0.43;;;0.43;;
28627;SDS011;15815;46.760;19.604;2023-08-07T00:32:00;0.30;;;0.30;;
28627;SDS011;15815;46.760;19.604;2023-08-07T00:34:25;0.55;;;0.43;;
28627;SDS011;15815;46.760;19.604;2023-08-07T00:36:51;1.02;;;0.30;;
28627;SDS011;15815;46.760;19.604;2023-08-07T00:39:16;0.50;;;0.30;;
28627;SDS011;15815;46.760;19.604;2023-08-07T00:41:42;0.22;;;0.22;;
28627;SDS011;15815;46.760;19.604;2023-08-07T00:44:08;0.20;;;0.20;;
28627;SDS011;15815;46.760;19.604;2023-08-07T00:46:33;0.45;;;0.43;;
28627;SDS011;15815;46.760;19.604;2023-08-07T00:48:59;0.57;;;0.30;;
28627;SDS011;15815;46.760;19.604;2023-08-07T00:51:31;0.13;;;0.13;;
28627;SDS011;15815;46.760;19.604;2023-08-07T00:53:57;0.20;;;0.20;;
28627;SDS011;15815;46.760;19.604;2023-08-07T00:56:28;0.30;;;0.30;;
28627;SDS011;15815;46.760;19.604;2023-08-07T00:58:55;0.73;;;0.22;;
28627;SDS011;15815;46.760;19.604;2023-08-07T01:01:21;0.10;;;0.10;;
28627;SDS011;15815;46.760;19.604;2023-08-07T01:03:47;0.40;;;0.40;;
28627;SDS011;15815;46.760;19.604;2023-08-07T01:06:13;0.30;;;0.30;;
28627;SDS011;15815;46.760;19.604;2023-08-07T01:08:38;0.95;;;0.22;;
28627;SDS011;15815;46.760;19.604;2023-08-07T01:16:27;0.30;;;0.30;;
28627;SDS011;15815;46.760;19.604;2023-08-07T01:19:01;0.30;;;0.30;;
28627;SDS011;15815;46.760;19.604;2023-08-07T01:21:28;0.20;;;0.20;;
28627;SDS011;15815;46.760;19.604;2023-08-07T01:23:56;0.30;;;0.30;;
28627;SDS011;15815;46.760;19.604;2023-08-07T01:26:22;0.47;;;0.30;;
28627;SDS011;15815;46.760;19.604;2023-08-07T01:29:49;0.20;;;0.20;;
28627;SDS011;15815;46.760;19.604;2023-08-07T01:31:51;0.30;;;0.30;;
28627;SDS011;15815;46.760;19.604;2023-08-07T01:34:18;2.45;;;0.40;;
28627;SDS011;15815;46.760;19.604;2023-08-07T01:36:48;0.30;;;0.30;;
28627;SDS011;15815;46.760;19.604;2023-08-07T01:39:15;0.20;;;0.20;;
28627;SDS011;15815;46.760;19.604;2023-08-07T01:41:43;0.28;;;0.20;;
28627;SDS011;15815;46.760;19.604;2023-08-07T01:44:08;0.13;;;0.13;;
28627;SDS011;15815;46.760;19.604;2023-08-07T01:46:34;0.63;;;0.30;;
28627;SDS011;15815;46.760;19.604;2023-08-07T01:49:00;0.20;;;0.20;;
28627;SDS011;15815;46.760;19.604;2023-08-07T01:51:25;0.30;;;0.30;;
28627;SDS011;15815;46.760;19.604;2023-08-07T01:53:50;0.40;;;0.30;;
28627;SDS011;15815;46.760;19.604;2023-08-07T01:56:16;0.47;;;0.47;;
28627;SDS011;15815;46.760;19.604;2023-08-07T01:58:41;0.47;;;0.30;;
28627;SDS011;15815;46.760;19.604;2023-08-07T02:01:08;0.93;;;0.50;;
28627;SDS011;15815;46.760;19.604;2023-08-07T02:03:33;0.77;;;0.50;;
28627;SDS011;15815;46.760;19.604;2023-08-07T02:05:59;1.75;;;0.52;;
28627;SDS011;15815;46.760;19.604;2023-08-07T02:08:29;0.35;;;0.35;;
28627;SDS011;15815;46.760;19.604;2023-08-07T02:10:54;0.47;;;0.40;;
28627;SDS011;15815;46.760;19.604;2023-08-07T02:13:20;0.80;;;0.68;;
28627;SDS011;15815;46.760;19.604;2023-08-07T02:15:45;1.30;;;0.68;;
28627;SDS011;15815;46.760;19.604;2023-08-07T02:18:11;0.40;;;0.40;;
28627;SDS011;15815;46.760;19.604;2023-08-07T02:20:36;2.22;;;0.63;;
28627;SDS011;15815;46.760;19.604;2023-08-07T02:23:02;0.90;;;0.60;;
28627;SDS011;15815;46.760;19.604;2023-08-07T02:25:28;0.60;;;0.50;;
28627;SDS011;15815;46.760;19.604;2023-08-07T02:27:53;0.82;;;0.50;;
28627;SDS011;15815;46.760;19.604;2023-08-07T02:30:19;0.63;;;0.60;;
28627;SDS011;15815;46.760;19.604;2023-08-07T02:32:44;0.40;;;0.40;;
28627;SDS011;15815;46.760;19.604;2023-08-07T02:35:10;1.88;;;0.80;;
28627;SDS011;15815;46.760;19.604;2023-08-07T02:37:36;0.45;;;0.35;;
28627;SDS011;15815;46.760;19.604;2023-08-07T02:40:02;2.40;;;0.85;;
28627;SDS011;15815;46.760;19.604;2023-08-07T02:42:27;1.02;;;0.85;;
28627;SDS011;15815;46.760;19.604;2023-08-07T02:44:53;0.50;;;0.50;;
28627;SDS011;15815;46.760;19.604;2023-08-07T02:47:22;0.57;;;0.57;;
28627;SDS011;15815;46.760;19.604;2023-08-07T02:49:47;0.90;;;0.75;;
28627;SDS011;15815;46.760;19.604;2023-08-07T02:52:15;0.50;;;0.50;;
28627;SDS011;15815;46.760;19.604;2023-08-07T02:54:40;1.33;;;0.95;;
28627;SDS011;15815;46.760;19.604;2023-08-07T02:57:06;1.00;;;0.90;;
28627;SDS011;15815;46.760;19.604;2023-08-07T02:59:31;0.60;;;0.60;;
28627;SDS011;15815;46.760;19.604;2023-08-07T03:01:57;0.73;;;0.60;;
28627;SDS011;15815;46.760;19.604;2023-08-07T03:04:23;0.60;;;0.60;;
28627;SDS011;15815;46.760;19.604;2023-08-07T03:06:48;0.85;;;0.43;;
28627;SDS011;15815;46.760;19.604;2023-08-07T03:09:13;0.60;;;0.60;;
28627;SDS011;15815;46.760;19.604;2023-08-07T03:11:39;0.68;;;0.50;;
28627;SDS011;15815;46.760;19.604;2023-08-07T03:14:05;0.57;;;0.50;;
28627;SDS011;15815;46.760;19.604;2023-08-07T03:16:30;0.95;;;0.85;;
28627;SDS011;15815;46.760;19.604;2023-08-07T03:18:56;0.80;;;0.70;;
28627;SDS011;15815;46.760;19.604;2023-08-07T03:21:22;1.35;;;0.52;;
28627;SDS011;15815;46.760;19.604;2023-08-07T03:23:47;0.60;;;0.57;;
28627;SDS011;15815;46.760;19.604;2023-08-07T03:26:13;0.55;;;0.50;;
28627;SDS011;15815;46.760;19.604;2023-08-07T03:28:38;0.73;;;0.60;;
28627;SDS011;15815;46.760;19.604;2023-08-07T03:31:04;3.13;;;0.77;;
28627;SDS011;15815;46.760;19.604;2023-08-07T03:33:30;0.90;;;0.65;;
28627;SDS011;15815;46.760;19.604;2023-08-07T03:35:56;0.47;;;0.47;;
28627;SDS011;15815;46.760;19.604;2023-08-07T03:38:21;0.98;;;0.70;;
28627;SDS011;15815;46.760;19.604;2023-08-07T03:40:47;1.50;;;0.70;;
28627;SDS011;15815;46.760;19.604;2023-08-07T03:43:12;0.63;;;0.63;;
28627;SDS011;15815;46.760;19.604;2023-08-07T03:45:38;0.85;;;0.63;;
28627;SDS011;15815;46.760;19.604;2023-08-07T03:48:04;1.20;;;0.82;;
28627;SDS011;15815;46.760;19.604;2023-08-07T03:50:30;1.00;;;0.90;;
28627;SDS011;15815;46.760;19.604;2023-08-07T03:52:56;1.15;;;1.02;;
28627;SDS011;15815;46.760;19.604;2023-08-07T03:55:21;5.60;;;1.10;;
28627;SDS011;15815;46.760;19.604;2023-08-07T03:57:47;1.65;;;1.17;;
28627;SDS011;15815;46.760;19.604;2023-08-07T04:00:12;2.92;;;1.30;;
28627;SDS011;15815;46.760;19.604;2023-08-07T04:02:38;1.40;;;1.10;;
28627;SDS011;15815;46.760;19.604;2023-08-07T04:05:04;2.63;;;1.75;;
28627;SDS011;15815;46.760;19.604;2023-08-07T04:07:30;4.20;;;1.48;;
28627;SDS011;15815;46.760;19.604;2023-08-07T04:09:55;1.88;;;1.25;;
28627;SDS011;15815;46.760;19.604;2023-08-07T04:12:24;2.40;;;1.20;;
28627;SDS011;15815;46.760;19.604;2023-08-07T04:14:49;3.17;;;1.70;;
28627;SDS011;15815;46.760;19.604;2023-08-07T04:17:15;2.17;;;1.50;;
28627;SDS011;15815;46.760;19.604;2023-08-07T04:19:40;1.60;;;1.38;;
28627;SDS011;15815;46.760;19.604;2023-08-07T04:22:06;2.15;;;1.38;;
28627;SDS011;15815;46.760;19.604;2023-08-07T04:24:31;2.20;;;1.52;;
28627;SDS011;15815;46.760;19.604;2023-08-07T04:26:57;2.15;;;1.42;;
28627;SDS011;15815;46.760;19.604;2023-08-07T04:29:25;2.58;;;1.48;;
28627;SDS011;15815;46.760;19.604;2023-08-07T04:31:51;3.53;;;1.70;;
28627;SDS011;15815;46.760;19.604;2023-08-07T04:34:16;2.08;;;1.40;;
28627;SDS011;15815;46.760;19.604;2023-08-07T04:36:41;3.33;;;1.65;;
28627;SDS011;15815;46.760;19.604;2023-08-07T04:39:08;3.58;;;1.30;;
28627;SDS011;15815;46.760;19.604;2023-08-07T04:41:33;2.03;;;1.48;;
28627;SDS011;15815;46.760;19.604;2023-08-07T04:43:59;1.17;;;0.85;;
28627;SDS011;15815;46.760;19.604;2023-08-07T04:46:24;1.83;;;1.05;;
28627;SDS011;15815;46.760;19.604;2023-08-07T04:48:50;1.00;;;0.73;;
28627;SDS011;15815;46.760;19.604;2023-08-07T04:51:15;0.73;;;0.60;;
28627;SDS011;15815;46.760;19.604;2023-08-07T04:53:43;2.92;;;0.50;;
28627;SDS011;15815;46.760;19.604;2023-08-07T04:56:08;0.75;;;0.50;;
28627;SDS011;15815;46.760;19.604;2023-08-07T04:58:34;0.47;;;0.47;;
28627;SDS011;15815;46.760;19.604;2023-08-07T05:00:59;0.98;;;0.70;;
28627;SDS011;15815;46.760;19.604;2023-08-07T05:03:25;1.00;;;0.60;;
28627;SDS011;15815;46.760;19.604;2023-08-07T05:05:50;0.85;;;0.73;;
28627;SDS011;15815;46.760;19.604;2023-08-07T05:08:16;2.25;;;0.50;;
28627;SDS011;15815;46.760;19.604;2023-08-07T05:10:42;0.88;;;0.52;;
28627;SDS011;15815;46.760;19.604;2023-08-07T05:13:07;0.70;;;0.60;;
28627;SDS011;15815;46.760;19.604;2023-08-07T05:15:33;0.65;;;0.50;;
28627;SDS011;15815;46.760;19.604;2023-08-07T05:17:59;0.90;;;0.45;;
28627;SDS011;15815;46.760;19.604;2023-08-07T05:20:24;0.68;;;0.68;;
28627;SDS011;15815;46.760;19.604;2023-08-07T05:22:50;0.50;;;0.40;;
28627;SDS011;15815;46.760;19.604;2023-08-07T05:25:16;1.05;;;0.47;;
28627;SDS011;15815;46.760;19.604;2023-08-07T05:27:43;0.80;;;0.50;;
28627;SDS011;15815;46.760;19.604;2023-08-07T05:30:09;0.40;;;0.40;;
28627;SDS011;15815;46.760;19.604;2023-08-07T05:32:35;0.52;;;0.50;;
28627;SDS011;15815;46.760;19.604;2023-08-07T05:35:01;1.85;;;0.30;;
28627;SDS011;15815;46.760;19.604;2023-08-07T05:37:27;0.30;;;0.22;;
28627;SDS011;15815;46.760;19.604;2023-08-07T05:39:52;1.05;;;0.38;;
28627;SDS011;15815;46.760;19.604;2023-08-07T05:42:18;0.85;;;0.50;;
28627;SDS011;15815;46.760;19.604;2023-08-07T05:44:43;0.43;;;0.30;;
28627;SDS011;15815;46.760;19.604;2023-08-07T05:47:09;0.30;;;0.30;;
28627;SDS011;15815;46.760;19.604;2023-08-07T05:49:34;0.30;;;0.25;;
28627;SDS011;15815;46.760;19.604;2023-08-07T05:52:00;0.35;;;0.22;;
28627;SDS011;15815;46.760;19.604;2023-08-07T05:54:25;0.40;;;0.20;;
28627;SDS011;15815;46.760;19.604;2023-08-07T05:56:51;0.22;;;0.22;;
28627;SDS011;15815;46.760;19.604;2023-08-07T05:59:16;0.25;;;0.20;;
28627;SDS011;15815;46.760;19.604;2023-08-07T06:01:43;0.35;;;0.22;;
28627;SDS011;15815;46.760;19.604;2023-08-07T06:04:08;0.60;;;0.30;;
28627;SDS011;15815;46.760;19.604;2023-08-07T06:06:34;0.20;;;0.20;;
28627;SDS011;15815;46.760;19.604;2023-08-07T06:08:59;0.30;;;0.20;;
28627;SDS011;15815;46.760;19.604;2023-08-07T06:11:25;1.85;;;0.10;;
28627;SDS011;15815;46.760;19.604;2023-08-07T06:13:50;0.13;;;0.13;;
28627;SDS011;15815;46.760;19.604;2023-08-07T06:16:16;0.90;;;0.32;;
28627;SDS011;15815;46.760;19.604;2023-08-07T06:18:41;0.10;;;0.10;;
28627;SDS011;15815;46.760;19.604;2023-08-07T06:21:07;0.45;;;0.30;;
28627;SDS011;15815;46.760;19.604;2023-08-07T06:23:33;0.93;;;0.57;;
28627;SDS011;15815;46.760;19.604;2023-08-07T06:26:00;0.38;;;0.20;;
28627;SDS011;15815;46.760;19.604;2023-08-07T06:28:25;0.20;;;0.20;;
28627;SDS011;15815;46.760;19.604;2023-08-07T06:30:50;0.40;;;0.20;;
28627;SDS011;15815;46.760;19.604;2023-08-07T06:33:16;0.03;;;0.03;;
28627;SDS011;15815;46.760;19.604;2023-08-07T06:35:41;0.10;;;0.10;;
28627;SDS011;15815;46.760;19.604;2023-08-07T06:38:08;0.32;;;0.20;;
28627;SDS011;15815;46.760;19.604;2023-08-07T06:40:37;0.10;;;0.10;;
28627;SDS011;15815;46.760;19.604;2023-08-07T06:43:04;0.25;;;0.20;;
28627;SDS011;15815;46.760;19.604;2023-08-07T06:45:29;1.05;;;0.20;;
28627;SDS011;15815;46.760;19.604;2023-08-07T06:47:55;0.38;;;0.22;;
28627;SDS011;15815;46.760;19.604;2023-08-07T06:50:20;1.05;;;0.10;;
28627;SDS011;15815;46.760;19.604;2023-08-07T06:52:46;0.68;;;0.20;;
28627;SDS011;15815;46.760;19.604;2023-08-07T06:55:11;0.05;;;0.05;;
28627;SDS011;15815;46.760;19.604;2023-08-07T06:57:37;0.10;;;0.10;;
28627;SDS011;15815;46.760;19.604;2023-08-07T07:00:02;0.25;;;0.20;;
28627;SDS011;15815;46.760;19.604;2023-08-07T07:02:28;0.20;;;0.10;;
28627;SDS011;15815;46.760;19.604;2023-08-07T07:04:54;0.50;;;0.15;;
28627;SDS011;15815;46.760;19.604;2023-08-07T07:07:19;0.10;;;0.10;;
28627;SDS011;15815;46.760;19.604;2023-08-07T07:09:45;0.22;;;0.05;;
28627;SDS011;15815;46.760;19.604;2023-08-07T07:12:10;0.10;;;0.10;;
28627;SDS011;15815;46.760;19.604;2023-08-07T07:14:36;0.00;;;0.00;;
28627;SDS011;15815;46.760;19.604;2023-08-07T07:17:01;0.52;;;0.10;;
28627;SDS011;15815;46.760;19.604;2023-08-07T07:19:27;0.10;;;0.10;;
28627;SDS011;15815;46.760;19.604;2023-08-07T07:21:52;0.13;;;0.10;;
28627;SDS011;15815;46.760;19.604;2023-08-07T07:24:18;0.00;;;0.00;;
28627;SDS011;15815;46.760;19.604;2023-08-07T07:26:43;0.20;;;0.03;;
28627;SDS011;15815;46.760;19.604;2023-08-07T07:29:09;0.10;;;0.05;;
28627;SDS011;15815;46.760;19.604;2023-08-07T07:31:34;0.00;;;0.00;;
28627;SDS011;15815;46.760;19.604;2023-08-07T07:34:00;0.35;;;0.00;;
28627;SDS011;15815;46.760;19.604;2023-08-07T07:36:26;0.00;;;0.00;;
28627;SDS011;15815;46.760;19.604;2023-08-07T07:38:51;0.13;;;0.00;;
28627;SDS011;15815;46.760;19.604;2023-08-07T07:41:17;0.10;;;0.10;;
28627;SDS011;15815;46.760;19.604;2023-08-07T07:43:42;0.10;;;0.10;;
28627;SDS011;15815;46.760;19.604;2023-08-07T07:46:08;0.00;;;0.00;;
28627;SDS011;15815;46.760;19.604;2023-08-07T07:48:34;1.02;;;0.20;;
28627;SDS011;15815;46.760;19.604;2023-08-07T07:51:00;0.20;;;0.10;;
28627;SDS011;15815;46.760;19.604;2023-08-07T07:53:26;0.00;;;0.00;;
28627;SDS011;15815;46.760;19.604;2023-08-07T07:55:52;0.13;;;0.10;;
28627;SDS011;15815;46.760;19.604;2023-08-07T07:58:19;0.63;;;0.20;;
28627;SDS011;15815;46.760;19.604;2023-08-07T08:00:45;1.88;;;0.10;;
28627;SDS011;15815;46.760;19.604;2023-08-07T08:03:10;0.55;;;0.10;;
28627;SDS011;15815;46.760;19.604;2023-08-07T08:05:36;0.10;;;0.10;;
28627;SDS011;15815;46.760;19.604;2023-08-07T08:08:05;0.15;;;0.10;;
28627;SDS011;15815;46.760;19.604;2023-08-07T08:10:31;0.65;;;0.05;;
28627;SDS011;15815;46.760;19.604;2023-08-07T08:12:57;0.10;;;0.10;;
28627;SDS011;15815;46.760;19.604;2023-08-07T08:15:22;0.85;;;0.22;;
28627;SDS011;15815;46.760;19.604;2023-08-07T08:17:48;1.27;;;0.20;;
28627;SDS011;15815;46.760;19.604;2023-08-07T08:20:14;0.38;;;0.20;;
28627;SDS011;15815;46.760;19.604;2023-08-07T08:22:39;0.00;;;0.00;;
28627;SDS011;15815;46.760;19.604;2023-08-07T08:25:05;0.08;;;0.08;;
28627;SDS011;15815;46.760;19.604;2023-08-07T08:27:31;0.45;;;0.10;;
28627;SDS011;15815;46.760;19.604;2023-08-07T08:29:56;0.17;;;0.10;;
28627;SDS011;15815;46.760;19.604;2023-08-07T08:32:22;0.28;;;0.10;;
28627;SDS011;15815;46.760;19.604;2023-08-07T08:34:47;0.35;;;0.10;;
28627;SDS011;15815;46.760;19.604;2023-08-07T08:37:14;0.10;;;0.10;;
28627;SDS011;15815;46.760;19.604;2023-08-07T08:39:39;0.80;;;0.17;;
28627;SDS011;15815;46.760;19.604;2023-08-07T08:42:05;0.30;;;0.10;;
28627;SDS011;15815;46.760;19.604;2023-08-07T08:44:32;0.10;;;0.10;;
28627;SDS011;15815;46.760;19.604;2023-08-07T08:47:04;0.03;;;0.03;;
28627;SDS011;15815;46.760;19.604;2023-08-07T08:52:12;0.65;;;0.13;;
28627;SDS011;15815;46.760;19.604;2023-08-07T08:54:39;0.20;;;0.15;;
28627;SDS011;15815;46.760;19.604;2023-08-07T08:57:09;0.35;;;0.10;;
28627;SDS011;15815;46.760;19.604;2023-08-07T08:59:36;0.10;;;0.10;;
28627;SDS011;15815;46.760;19.604;2023-08-07T09:02:02;0.45;;;0.10;;
28627;SDS011;15815;46.760;19.604;2023-08-07T09:04:28;0.70;;;0.22;;
28627;SDS011;15815;46.760;19.604;2023-08-07T09:06:54;0.20;;;0.15;;
28627;SDS011;15815;46.760;19.604;2023-08-07T09:09:20;0.22;;;0.20;;
28627;SDS011;15815;46.760;19.604;2023-08-07T09:11:46;0.00;;;0.00;;
28627;SDS011;15815;46.760;19.604;2023-08-07T09:14:15;0.20;;;0.20;;
28627;SDS011;15815;46.760;19.604;2023-08-07T09:16:45;0.20;;;0.10;;
28627;SDS011;15815;46.760;19.604;2023-08-07T09:19:13;0.20;;;0.20;;
28627;SDS011;15815;46.760;19.604;2023-08-07T09:21:39;0.10;;;0.10;;
28627;SDS011;15815;46.760;19.604;2023-08-07T09:24:10;0.30;;;0.20;;
28627;SDS011;15815;46.760;19.604;2023-08-07T09:26:35;0.10;;;0.10;;
28627;SDS011;15815;46.760;19.604;2023-08-07T09:29:01;0.22;;;0.20;;
28627;SDS011;15815;46.760;19.604;2023-08-07T09:31:28;0.65;;;0.22;;
28627;SDS011;15815;46.760;19.604;2023-08-07T09:33:53;0.52;;;0.30;;
28627;SDS011;15815;46.760;19.604;2023-08-07T09:36:23;0.40;;;0.40;;
28627;SDS011;15815;46.760;19.604;2023-08-07T09:38:51;0.35;;;0.20;;
28627;SDS011;15815;46.760;19.604;2023-08-07T09:41:17;0.20;;;0.20;;
28627;SDS011;15815;46.760;19.604;2023-08-07T09:43:43;0.50;;;0.47;;
28627;SDS011;15815;46.760;19.604;2023-08-07T09:46:09;1.08;;;0.75;;
28627;SDS011;15815;46.760;19.604;2023-08-07T09:48:44;0.40;;;0.40;;
28627;SDS011;15815;46.760;19.604;2023-08-07T09:51:10;1.52;;;0.70;;
28627;SDS011;15815;46.760;19.604;2023-08-07T09:53:38;0.60;;;0.60;;
28627;SDS011;15815;46.760;19.604;2023-08-07T09:56:04;0.77;;;0.50;;
28627;SDS011;15815;46.760;19.604;2023-08-07T09:58:31;0.70;;;0.60;;
28627;SDS011;15815;46.760;19.604;2023-08-07T10:00:58;1.38;;;0.50;;
28627;SDS011;15815;46.760;19.604;2023-08-07T10:03:25;0.63;;;0.57;;
28627;SDS011;15815;46.760;19.604;2023-08-07T10:05:51;0.25;;;0.20;;
28627;SDS011;15815;46.760;19.604;2023-08-07T10:08:17;0.17;;;0.10;;
28627;SDS011;15815;46.760;19.604;2023-08-07T10:10:43;0.25;;;0.20;;
28627;SDS011;15815;46.760;19.604;2023-08-07T10:13:10;0.25;;;0.10;;
28627;SDS011;15815;46.760;19.604;2023-08-07T10:15:38;0.17;;;0.17;;
28627;SDS011;15815;46.760;19.604;2023-08-07T10:18:04;0.50;;;0.28;;
28627;SDS011;15815;46.760;19.604;2023-08-07T10:20:29;0.40;;;0.40;;
28627;SDS011;15815;46.760;19.604;2023-08-07T10:23:06;0.30;;;0.20;;
28627;SDS011;15815;46.760;19.604;2023-08-07T10:25:33;0.17;;;0.17;;
28627;SDS011;15815;46.760;19.604;2023-08-07T10:28:01;0.22;;;0.15;;
28627;SDS011;15815;46.760;19.604;2023-08-07T10:30:28;0.10;;;0.10;;
28627;SDS011;15815;46.760;19.604;2023-08-07T10:32:54;0.38;;;0.25;;
28627;SDS011;15815;46.760;19.604;2023-08-07T10:35:25;0.17;;;0.17;;
28627;SDS011;15815;46.760;19.604;2023-08-07T10:37:54;1.88;;;0.00;;
28627;SDS011;15815;46.760;19.604;2023-08-07T10:43:27;0.10;;;0.08;;
28627;SDS011;15815;46.760;19.604;2023-08-07T10:45:54;0.70;;;0.10;;
28627;SDS011;15815;46.760;19.604;2023-08-07T10:48:25;0.20;;;0.05;;
28627;SDS011;15815;46.760;19.604;2023-08-07T10:53:34;1.02;;;0.40;;
28627;SDS011;15815;46.760;19.604;2023-08-07T10:56:04;0.10;;;0.10;;
28627;SDS011;15815;46.760;19.604;2023-08-07T10:58:31;0.10;;;0.10;;
28627;SDS011;15815;46.760;19.604;2023-08-07T11:03:42;0.10;;;0.10;;
28627;SDS011;15815;46.760;19.604;2023-08-07T11:06:14;0.30;;;0.15;;
28627;SDS011;15815;46.760;19.604;2023-08-07T11:08:43;0.28;;;0.10;;
28627;SDS011;15815;46.760;19.604;2023-08-07T11:11:09;0.45;;;0.15;;
28627;SDS011;15815;46.760;19.604;2023-08-07T11:13:34;0.10;;;0.10;;
28627;SDS011;15815;46.760;19.604;2023-08-07T11:18:30;0.10;;;0.10;;
28627;SDS011;15815;46.760;19.604;2023-08-07T11:20:56;0.20;;;0.10;;
28627;SDS011;15815;46.760;19.604;2023-08-07T11:23:25;0.28;;;0.10;;
28627;SDS011;15815;46.760;19.604;2023-08-07T11:25:54;0.08;;;0.00;;
28627;SDS011;15815;46.760;19.604;2023-08-07T11:28:20;0.32;;;0.10;;
28627;SDS011;15815;46.760;19.604;2023-08-07T11:30:48;2.60;;;0.88;;
28627;SDS011;15815;46.760;19.604;2023-08-07T11:33:14;1.40;;;0.20;;
28627;SDS011;15815;46.760;19.604;2023-08-07T11:35:41;0.20;;;0.10;;
28627;SDS011;15815;46.760;19.604;2023-08-07T11:38:07;0.75;;;0.22;;
28627;SDS011;15815;46.760;19.604;2023-08-07T11:40:32;0.40;;;0.20;;
28627;SDS011;15815;46.760;19.604;2023-08-07T11:43:01;0.80;;;0.20;;
28627;SDS011;15815;46.760;19.604;2023-08-07T11:56:36;0.00;;;0.00;;
28627;SDS011;15815;46.760;19.604;2023-08-07T11:59:02;0.05;;;0.05;;
28627;SDS011;15815;46.760;19.604;2023-08-07T12:01:29;0.00;;;0.00;;
28627;SDS011;15815;46.760;19.604;2023-08-07T12:03:55;0.15;;;0.10;;
28627;SDS011;15815;46.760;19.604;2023-08-07T12:06:25;0.00;;;0.00;;
28627;SDS011;15815;46.760;19.604;2023-08-07T12:08:53;0.65;;;0.10;;
28627;SDS011;15815;46.760;19.604;2023-08-07T12:11:20;0.70;;;0.10;;
28627;SDS011;15815;46.760;19.604;2023-08-07T12:13:49;0.03;;;0.00;;
28627;SDS011;15815;46.760;19.604;2023-08-07T12:16:16;0.10;;;0.10;;
28627;SDS011;15815;46.760;19.604;2023-08-07T12:18:46;0.10;;;0.10;;
28627;SDS011;15815;46.760;19.604;2023-08-07T12:21:19;0.10;;;0.05;;
28627;SDS011;15815;46.760;19.604;2023-08-07T12:23:46;0.00;;;0.00;;
28627;SDS011;15815;46.760;19.604;2023-08-07T12:26:12;0.10;;;0.08;;
28627;SDS011;15815;46.760;19.604;2023-08-07T12:28:37;0.00;;;0.00;;
28627;SDS011;15815;46.760;19.604;2023-08-07T12:31:03;0.00;;;0.00;;
28627;SDS011;15815;46.760;19.604;2023-08-07T12:33:29;0.00;;;0.00;;
28627;SDS011;15815;46.760;19.604;2023-08-07T12:35:55;0.00;;;0.00;;
28627;SDS011;15815;46.760;19.604;2023-08-07T12:38:20;0.20;;;0.00;;
28627;SDS011;15815;46.760;19.604;2023-08-07T12:40:46;0.00;;;0.00;;
28627;SDS011;15815;46.760;19.604;2023-08-07T12:43:12;0.00;;;0.00;;
28627;SDS011;15815;46.760;19.604;2023-08-07T12:45:37;0.00;;;0.00;;
28627;SDS011;15815;46.760;19.604;2023-08-07T12:48:03;0.17;;;0.00;;
28627;SDS011;15815;46.760;19.604;2023-08-07T12:50:29;0.00;;;0.00;;
28627;SDS011;15815;46.760;19.604;2023-08-07T12:52:56;0.22;;;0.10;;
28627;SDS011;15815;46.760;19.604;2023-08-07T12:55:21;0.00;;;0.00;;
28627;SDS011;15815;46.760;19.604;2023-08-07T12:57:47;0.20;;;0.10;;
28627;SDS011;15815;46.760;19.604;2023-08-07T13:00:15;0.30;;;0.20;;
28627;SDS011;15815;46.760;19.604;2023-08-07T13:02:43;0.00;;;0.00;;
28627;SDS011;15815;46.760;19.604;2023-08-07T13:05:10;0.00;;;0.00;;
28627;SDS011;15815;46.760;19.604;2023-08-07T13:07:37;0.00;;;0.00;;
28627;SDS011;15815;46.760;19.604;2023-08-07T13:10:04;0.00;;;0.00;;
28627;SDS011;15815;46.760;19.604;2023-08-07T13:12:33;0.00;;;0.00;;
28627;SDS011;15815;46.760;19.604;2023-08-07T13:15:02;0.10;;;0.00;;
28627;SDS011;15815;46.760;19.604;2023-08-07T13:17:32;0.03;;;0.03;;
28627;SDS011;15815;46.760;19.604;2023-08-07T13:19:58;0.17;;;0.00;;
28627;SDS011;15815;46.760;19.604;2023-08-07T13:22:24;0.00;;;0.00;;
28627;SDS011;15815;46.760;19.604;2023-08-07T13:24:49;0.03;;;0.03;;
28627;SDS011;15815;46.760;19.604;2023-08-07T13:27:15;0.00;;;0.00;;
28627;SDS011;15815;46.760;19.604;2023-08-07T13:29:40;0.15;;;0.10;;
28627;SDS011;15815;46.760;19.604;2023-08-07T13:32:06;0.00;;;0.00;;
28627;SDS011;15815;46.760;19.604;2023-08-07T13:34:31;0.03;;;0.00;;
28627;SDS011;15815;46.760;19.604;2023-08-07T13:36:57;0.00;;;0.00;;
28627;SDS011;15815;46.760;19.604;2023-08-07T13:39:23;0.00;;;0.00;;
28627;SDS011;15815;46.760;19.604;2023-08-07T13:41:48;0.80;;;0.00;;
28627;SDS011;15815;46.760;19.604;2023-08-07T13:44:14;0.00;;;0.00;;
28627;SDS011;15815;46.760;19.604;2023-08-07T13:46:39;0.00;;;0.00;;
28627;SDS011;15815;46.760;19.604;2023-08-07T13:49:05;0.00;;;0.00;;
28627;SDS011;15815;46.760;19.604;2023-08-07T13:51:31;0.20;;;0.00;;
28627;SDS011;15815;46.760;19.604;2023-08-07T13:53:57;0.80;;;0.00;;
28627;SDS011;15815;46.760;19.604;2023-08-07T13:56:24;0.00;;;0.00;;
28627;SDS011;15815;46.760;19.604;2023-08-07T13:58:50;0.15;;;0.00;;
28627;SDS011;15815;46.760;19.604;2023-08-07T14:01:18;0.00;;;0.00;;
28627;SDS011;15815;46.760;19.604;2023-08-07T14:03:44;0.00;;;0.00;;
28627;SDS011;15815;46.760;19.604;2023-08-07T14:06:10;0.00;;;0.00;;
28627;SDS011;15815;46.760;19.604;2023-08-07T14:08:36;0.28;;;0.00;;
28627;SDS011;15815;46.760;19.604;2023-08-07T14:11:02;0.85;;;0.00;;
28627;SDS011;15815;46.760;19.604;2023-08-07T14:13:27;0.00;;;0.00;;
28627;SDS011;15815;46.760;19.604;2023-08-07T14:15:54;0.00;;;0.00;;
28627;SDS011;15815;46.760;19.604;2023-08-07T14:18:20;0.35;;;0.10;;
28627;SDS011;15815;46.760;19.604;2023-08-07T14:20:45;0.00;;;0.00;;
28627;SDS011;15815;46.760;19.604;2023-08-07T14:23:15;0.00;;;0.00;;
28627;SDS011;15815;46.760;19.604;2023-08-07T14:25:40;0.00;;;0.00;;
28627;SDS011;15815;46.760;19.604;2023-08-07T14:28:06;0.00;;;0.00;;
28627;SDS011;15815;46.760;19.604;2023-08-07T14:30:31;0.13;;;0.10;;
28627;SDS011;15815;46.760;19.604;2023-08-07T14:32:57;0.00;;;0.00;;
28627;SDS011;15815;46.760;19.604;2023-08-07T14:37:52;0.00;;;0.00;;
28627;SDS011;15815;46.760;19.604;2023-08-07T14:40:17;0.00;;;0.00;;
28627;SDS011;15815;46.760;19.604;2023-08-07T14:42:43;0.10;;;0.00;;
28627;SDS011;15815;46.760;19.604;2023-08-07T14:45:08;0.10;;;0.00;;
28627;SDS011;15815;46.760;19.604;2023-08-07T14:47:34;0.00;;;0.00;;
28627;SDS011;15815;46.760;19.604;2023-08-07T14:50:00;0.00;;;0.00;;
28627;SDS011;15815;46.760;19.604;2023-08-07T14:52:25;0.00;;;0.00;;
28627;SDS011;15815;46.760;19.604;2023-08-07T14:54:51;0.00;;;0.00;;
28627;SDS011;15815;46.760;19.604;2023-08-07T14:57:16;0.03;;;0.00;;
28627;SDS011;15815;46.760;19.604;2023-08-07T14:59:42;0.00;;;0.00;;